sensor_id;sensor_type;location;lat;lon;timestamp;P1;durP1;ratioP1;P2;durP2;ratioP2
34930;SDS011;21134;49.646;8.560;2023-03-01T00:00:03;2.10;;;1.50;;
34930;SDS011;21134;49.646;8.560;2023-03-01T00:02:32;0.93;;;0.87;;
34930;SDS011;21134;49.646;8.560;2023-03-01T00:04:59;8.77;;;1.57;;
34930;SDS011;21134;49.646;8.560;2023-03-01T00:07:26;2.77;;;1.43;;
34930;SDS011;21134;49.646;8.560;2023-03-01T00:09:52;1.50;;;1.40;;
34930;SDS011;21134;49.646;8.560;2023-03-01T00:12:19;5.03;;;1.63;;
34930;SDS011;21134;49.646;8.560;2023-03-01T00:14:45;5.90;;;1.73;;
34930;SDS011;21134;49.646;8.560;2023-03-01T00:17:12;2.67;;;1.63;;
34930;SDS011;21134;49.646;8.560;2023-03-01T00:19:38;2.60;;;1.60;;
34930;SDS011;21134;49.646;8.560;2023-03-01T00:22:06;1.13;;;1.10;;
34930;SDS011;21134;49.646;8.560;2023-03-01T00:24:33;4.93;;;1.30;;
34930;SDS011;21134;49.646;8.560;2023-03-01T00:26:59;1.67;;;1.57;;
34930;SDS011;21134;49.646;8.560;2023-03-01T00:29:25;1.00;;;0.93;;
34930;SDS011;21134;49.646;8.560;2023-03-01T00:31:52;13.93;;;1.37;;
34930;SDS011;21134;49.646;8.560;2023-03-01T00:34:18;5.00;;;1.80;;
34930;SDS011;21134;49.646;8.560;2023-03-01T00:36:45;1.70;;;1.07;;
34930;SDS011;21134;49.646;8.560;2023-03-01T00:39:13;5.03;;;2.17;;
34930;SDS011;21134;49.646;8.560;2023-03-01T00:41:41;3.50;;;1.30;;
34930;SDS011;21134;49.646;8.560;2023-03-01T00:44:07;0.57;;;0.57;;
34930;SDS011;21134;49.646;8.560;2023-03-01T00:46:34;10.83;;;2.10;;
34930;SDS011;21134;49.646;8.560;2023-03-01T00:49:01;0.80;;;0.80;;
34930;SDS011;21134;49.646;8.560;2023-03-01T00:51:29;2.10;;;1.87;;
34930;SDS011;21134;49.646;8.560;2023-03-01T00:53:56;1.33;;;1.20;;
34930;SDS011;21134;49.646;8.560;2023-03-01T00:56:25;3.10;;;1.70;;
34930;SDS011;21134;49.646;8.560;2023-03-01T00:58:53;3.00;;;1.30;;
34930;SDS011;21134;49.646;8.560;2023-03-01T01:01:20;3.17;;;0.80;;
34930;SDS011;21134;49.646;8.560;2023-03-01T01:03:49;1.90;;;0.80;;
34930;SDS011;21134;49.646;8.560;2023-03-01T01:06:17;1.27;;;1.17;;
34930;SDS011;21134;49.646;8.560;2023-03-01T01:08:45;2.17;;;1.47;;
34930;SDS011;21134;49.646;8.560;2023-03-01T01:11:12;2.27;;;1.23;;
34930;SDS011;21134;49.646;8.560;2023-03-01T01:13:40;0.90;;;0.90;;
34930;SDS011;21134;49.646;8.560;2023-03-01T01:16:07;3.53;;;2.03;;
34930;SDS011;21134;49.646;8.560;2023-03-01T01:18:34;3.77;;;1.37;;
34930;SDS011;21134;49.646;8.560;2023-03-01T01:21:05;2.73;;;1.30;;
34930;SDS011;21134;49.646;8.560;2023-03-01T01:23:32;2.23;;;1.63;;
34930;SDS011;21134;49.646;8.560;2023-03-01T01:26:03;4.20;;;1.83;;
34930;SDS011;21134;49.646;8.560;2023-03-01T01:28:30;0.87;;;0.87;;
34930;SDS011;21134;49.646;8.560;2023-03-01T01:31:03;1.43;;;0.83;;
34930;SDS011;21134;49.646;8.560;2023-03-01T01:33:29;1.50;;;1.40;;
34930;SDS011;21134;49.646;8.560;2023-03-01T01:35:56;1.20;;;1.10;;
34930;SDS011;21134;49.646;8.560;2023-03-01T01:38:23;0.53;;;0.53;;
34930;SDS011;21134;49.646;8.560;2023-03-01T01:40:50;1.73;;;1.43;;
34930;SDS011;21134;49.646;8.560;2023-03-01T01:43:18;5.23;;;2.50;;
34930;SDS011;21134;49.646;8.560;2023-03-01T01:45:48;6.70;;;1.93;;
34930;SDS011;21134;49.646;8.560;2023-03-01T01:48:18;1.40;;;1.30;;
34930;SDS011;21134;49.646;8.560;2023-03-01T01:50:48;9.50;;;1.97;;
34930;SDS011;21134;49.646;8.560;2023-03-01T01:53:22;1.70;;;1.30;;
34930;SDS011;21134;49.646;8.560;2023-03-01T01:55:51;0.60;;;0.60;;
34930;SDS011;21134;49.646;8.560;2023-03-01T01:58:22;3.23;;;2.10;;
34930;SDS011;21134;49.646;8.560;2023-03-01T02:00:53;1.93;;;1.20;;
34930;SDS011;21134;49.646;8.560;2023-03-01T02:03:23;1.43;;;1.30;;
34930;SDS011;21134;49.646;8.560;2023-03-01T02:05:55;3.70;;;1.73;;
34930;SDS011;21134;49.646;8.560;2023-03-01T02:08:26;5.57;;;1.93;;
34930;SDS011;21134;49.646;8.560;2023-03-01T02:10:55;1.30;;;0.93;;
34930;SDS011;21134;49.646;8.560;2023-03-01T02:13:24;7.07;;;1.43;;
34930;SDS011;21134;49.646;8.560;2023-03-01T02:15:51;1.53;;;1.20;;
34930;SDS011;21134;49.646;8.560;2023-03-01T02:18:18;2.13;;;1.43;;
34930;SDS011;21134;49.646;8.560;2023-03-01T02:20:51;2.13;;;1.47;;
34930;SDS011;21134;49.646;8.560;2023-03-01T02:23:30;3.13;;;1.40;;
34930;SDS011;21134;49.646;8.560;2023-03-01T02:26:00;2.33;;;1.53;;
34930;SDS011;21134;49.646;8.560;2023-03-01T02:28:34;1.90;;;1.07;;
34930;SDS011;21134;49.646;8.560;2023-03-01T02:31:02;3.20;;;1.90;;
34930;SDS011;21134;49.646;8.560;2023-03-01T02:33:48;2.13;;;1.67;;
34930;SDS011;21134;49.646;8.560;2023-03-01T02:36:15;2.90;;;1.47;;
34930;SDS011;21134;49.646;8.560;2023-03-01T02:38:44;0.87;;;0.87;;
34930;SDS011;21134;49.646;8.560;2023-03-01T02:41:13;3.97;;;1.87;;
34930;SDS011;21134;49.646;8.560;2023-03-01T02:43:44;4.13;;;2.70;;
34930;SDS011;21134;49.646;8.560;2023-03-01T02:46:14;4.27;;;2.03;;
34930;SDS011;21134;49.646;8.560;2023-03-01T02:48:42;2.00;;;1.43;;
34930;SDS011;21134;49.646;8.560;2023-03-01T02:54:14;7.00;;;2.23;;
34930;SDS011;21134;49.646;8.560;2023-03-01T02:56:47;1.80;;;1.00;;
34930;SDS011;21134;49.646;8.560;2023-03-01T02:59:16;0.97;;;0.97;;
34930;SDS011;21134;49.646;8.560;2023-03-01T03:01:45;2.33;;;1.80;;
34930;SDS011;21134;49.646;8.560;2023-03-01T03:04:13;3.53;;;1.63;;
34930;SDS011;21134;49.646;8.560;2023-03-01T03:06:42;1.77;;;1.50;;
34930;SDS011;21134;49.646;8.560;2023-03-01T03:09:09;1.60;;;0.83;;
34930;SDS011;21134;49.646;8.560;2023-03-01T03:11:36;1.70;;;1.17;;
34930;SDS011;21134;49.646;8.560;2023-03-01T03:14:04;1.63;;;1.20;;
34930;SDS011;21134;49.646;8.560;2023-03-01T03:16:38;1.83;;;1.50;;
34930;SDS011;21134;49.646;8.560;2023-03-01T03:19:06;2.83;;;1.90;;
34930;SDS011;21134;49.646;8.560;2023-03-01T03:21:32;12.63;;;2.20;;
34930;SDS011;21134;49.646;8.560;2023-03-01T03:23:59;1.77;;;0.87;;
34930;SDS011;21134;49.646;8.560;2023-03-01T03:26:25;1.83;;;1.13;;
34930;SDS011;21134;49.646;8.560;2023-03-01T03:28:52;1.37;;;1.27;;
34930;SDS011;21134;49.646;8.560;2023-03-01T03:31:18;1.50;;;1.30;;
34930;SDS011;21134;49.646;8.560;2023-03-01T03:33:47;6.70;;;2.07;;
34930;SDS011;21134;49.646;8.560;2023-03-01T03:36:15;2.10;;;1.40;;
34930;SDS011;21134;49.646;8.560;2023-03-01T03:38:42;1.90;;;1.57;;
34930;SDS011;21134;49.646;8.560;2023-03-01T03:41:10;2.40;;;1.17;;
34930;SDS011;21134;49.646;8.560;2023-03-01T03:43:37;1.13;;;0.63;;
34930;SDS011;21134;49.646;8.560;2023-03-01T03:46:05;4.13;;;2.10;;
34930;SDS011;21134;49.646;8.560;2023-03-01T03:48:34;2.33;;;2.10;;
34930;SDS011;21134;49.646;8.560;2023-03-01T03:51:05;1.70;;;1.03;;
34930;SDS011;21134;49.646;8.560;2023-03-01T03:53:32;5.73;;;2.07;;
34930;SDS011;21134;49.646;8.560;2023-03-01T03:55:59;1.00;;;1.00;;
34930;SDS011;21134;49.646;8.560;2023-03-01T03:58:25;6.10;;;1.83;;
34930;SDS011;21134;49.646;8.560;2023-03-01T04:00:53;1.93;;;1.40;;
34930;SDS011;21134;49.646;8.560;2023-03-01T04:03:21;4.90;;;1.47;;
34930;SDS011;21134;49.646;8.560;2023-03-01T04:05:50;7.63;;;2.53;;
34930;SDS011;21134;49.646;8.560;2023-03-01T04:08:19;8.33;;;1.60;;
34930;SDS011;21134;49.646;8.560;2023-03-01T04:10:46;7.20;;;2.23;;
34930;SDS011;21134;49.646;8.560;2023-03-01T04:13:16;1.53;;;1.23;;
34930;SDS011;21134;49.646;8.560;2023-03-01T04:15:44;1.27;;;1.17;;
34930;SDS011;21134;49.646;8.560;2023-03-01T04:18:11;3.87;;;1.43;;
34930;SDS011;21134;49.646;8.560;2023-03-01T04:20:39;3.93;;;1.33;;
34930;SDS011;21134;49.646;8.560;2023-03-01T04:23:06;4.93;;;2.40;;
34930;SDS011;21134;49.646;8.560;2023-03-01T04:25:40;1.47;;;1.37;;
34930;SDS011;21134;49.646;8.560;2023-03-01T04:28:07;5.80;;;2.90;;
34930;SDS011;21134;49.646;8.560;2023-03-01T04:30:35;2.27;;;1.77;;
34930;SDS011;21134;49.646;8.560;2023-03-01T04:33:02;7.63;;;1.70;;
34930;SDS011;21134;49.646;8.560;2023-03-01T04:35:30;2.77;;;1.60;;
34930;SDS011;21134;49.646;8.560;2023-03-01T04:37:57;1.13;;;1.10;;
34930;SDS011;21134;49.646;8.560;2023-03-01T04:40:24;4.03;;;1.67;;
34930;SDS011;21134;49.646;8.560;2023-03-01T04:42:52;2.57;;;1.80;;
34930;SDS011;21134;49.646;8.560;2023-03-01T04:45:19;2.67;;;1.17;;
34930;SDS011;21134;49.646;8.560;2023-03-01T04:47:46;3.80;;;2.10;;
34930;SDS011;21134;49.646;8.560;2023-03-01T04:50:14;2.63;;;1.40;;
34930;SDS011;21134;49.646;8.560;2023-03-01T04:52:41;2.73;;;1.20;;
34930;SDS011;21134;49.646;8.560;2023-03-01T04:55:08;2.83;;;1.77;;
34930;SDS011;21134;49.646;8.560;2023-03-01T04:57:35;1.43;;;1.33;;
34930;SDS011;21134;49.646;8.560;2023-03-01T05:00:04;1.17;;;1.13;;
34930;SDS011;21134;49.646;8.560;2023-03-01T05:02:45;10.87;;;3.57;;
34930;SDS011;21134;49.646;8.560;2023-03-01T05:05:13;1.40;;;1.27;;
34930;SDS011;21134;49.646;8.560;2023-03-01T05:07:40;3.97;;;1.80;;
34930;SDS011;21134;49.646;8.560;2023-03-01T05:10:07;1.67;;;1.57;;
34930;SDS011;21134;49.646;8.560;2023-03-01T05:12:34;2.17;;;1.67;;
34930;SDS011;21134;49.646;8.560;2023-03-01T05:15:04;2.60;;;2.37;;
34930;SDS011;21134;49.646;8.560;2023-03-01T05:17:32;4.63;;;1.10;;
34930;SDS011;21134;49.646;8.560;2023-03-01T05:19:58;1.73;;;1.53;;
34930;SDS011;21134;49.646;8.560;2023-03-01T05:22:26;0.97;;;0.87;;
34930;SDS011;21134;49.646;8.560;2023-03-01T05:24:52;1.63;;;1.07;;
34930;SDS011;21134;49.646;8.560;2023-03-01T05:27:20;5.00;;;2.70;;
34930;SDS011;21134;49.646;8.560;2023-03-01T05:29:47;4.97;;;1.57;;
34930;SDS011;21134;49.646;8.560;2023-03-01T05:32:15;7.33;;;2.57;;
34930;SDS011;21134;49.646;8.560;2023-03-01T05:34:42;2.57;;;1.37;;
34930;SDS011;21134;49.646;8.560;2023-03-01T05:37:09;4.90;;;3.13;;
34930;SDS011;21134;49.646;8.560;2023-03-01T05:39:35;4.73;;;1.57;;
34930;SDS011;21134;49.646;8.560;2023-03-01T05:42:02;2.27;;;1.63;;
34930;SDS011;21134;49.646;8.560;2023-03-01T05:44:28;2.30;;;0.53;;
34930;SDS011;21134;49.646;8.560;2023-03-01T05:46:55;6.83;;;3.47;;
34930;SDS011;21134;49.646;8.560;2023-03-01T05:49:24;4.50;;;2.17;;
34930;SDS011;21134;49.646;8.560;2023-03-01T05:51:51;2.77;;;1.87;;
34930;SDS011;21134;49.646;8.560;2023-03-01T05:54:19;4.87;;;3.20;;
34930;SDS011;21134;49.646;8.560;2023-03-01T05:56:46;3.30;;;1.30;;
34930;SDS011;21134;49.646;8.560;2023-03-01T05:59:13;3.77;;;2.33;;
34930;SDS011;21134;49.646;8.560;2023-03-01T06:01:41;4.17;;;1.57;;
34930;SDS011;21134;49.646;8.560;2023-03-01T06:04:07;1.40;;;1.10;;
34930;SDS011;21134;49.646;8.560;2023-03-01T06:06:35;0.60;;;0.60;;
34930;SDS011;21134;49.646;8.560;2023-03-01T06:09:03;1.13;;;1.03;;
34930;SDS011;21134;49.646;8.560;2023-03-01T06:11:29;4.23;;;2.93;;
34930;SDS011;21134;49.646;8.560;2023-03-01T06:13:56;3.43;;;1.60;;
34930;SDS011;21134;49.646;8.560;2023-03-01T06:16:22;2.83;;;1.63;;
34930;SDS011;21134;49.646;8.560;2023-03-01T06:18:49;15.10;;;2.03;;
34930;SDS011;21134;49.646;8.560;2023-03-01T06:21:15;2.33;;;1.10;;
34930;SDS011;21134;49.646;8.560;2023-03-01T06:23:43;1.73;;;0.80;;
34930;SDS011;21134;49.646;8.560;2023-03-01T06:26:10;2.00;;;1.90;;
34930;SDS011;21134;49.646;8.560;2023-03-01T06:28:36;1.73;;;1.37;;
34930;SDS011;21134;49.646;8.560;2023-03-01T06:31:03;2.37;;;1.77;;
34930;SDS011;21134;49.646;8.560;2023-03-01T06:33:33;2.33;;;1.57;;
34930;SDS011;21134;49.646;8.560;2023-03-01T06:36:01;3.73;;;2.83;;
34930;SDS011;21134;49.646;8.560;2023-03-01T06:38:27;2.53;;;2.10;;
34930;SDS011;21134;49.646;8.560;2023-03-01T06:40:55;4.90;;;1.50;;
34930;SDS011;21134;49.646;8.560;2023-03-01T06:43:22;0.53;;;0.53;;
34930;SDS011;21134;49.646;8.560;2023-03-01T06:45:49;1.33;;;1.23;;
34930;SDS011;21134;49.646;8.560;2023-03-01T06:48:16;7.33;;;1.73;;
34930;SDS011;21134;49.646;8.560;2023-03-01T06:50:42;5.23;;;1.70;;
34930;SDS011;21134;49.646;8.560;2023-03-01T06:53:09;8.33;;;1.77;;
34930;SDS011;21134;49.646;8.560;2023-03-01T06:55:35;1.20;;;1.10;;
34930;SDS011;21134;49.646;8.560;2023-03-01T06:58:03;4.23;;;1.17;;
34930;SDS011;21134;49.646;8.560;2023-03-01T07:00:30;6.60;;;2.83;;
34930;SDS011;21134;49.646;8.560;2023-03-01T07:02:58;2.67;;;1.33;;
34930;SDS011;21134;49.646;8.560;2023-03-01T07:05:25;8.13;;;2.47;;
34930;SDS011;21134;49.646;8.560;2023-03-01T07:07:51;1.80;;;1.13;;
34930;SDS011;21134;49.646;8.560;2023-03-01T07:10:20;5.17;;;1.87;;
34930;SDS011;21134;49.646;8.560;2023-03-01T07:12:46;1.43;;;1.13;;
34930;SDS011;21134;49.646;8.560;2023-03-01T07:15:14;2.57;;;1.83;;
34930;SDS011;21134;49.646;8.560;2023-03-01T07:17:41;3.83;;;1.90;;
34930;SDS011;21134;49.646;8.560;2023-03-01T07:20:09;5.10;;;1.27;;
34930;SDS011;21134;49.646;8.560;2023-03-01T07:22:39;2.33;;;1.70;;
34930;SDS011;21134;49.646;8.560;2023-03-01T07:25:06;3.30;;;1.90;;
34930;SDS011;21134;49.646;8.560;2023-03-01T07:27:33;6.03;;;3.10;;
34930;SDS011;21134;49.646;8.560;2023-03-01T07:29:59;4.57;;;1.67;;
34930;SDS011;21134;49.646;8.560;2023-03-01T07:32:27;7.23;;;2.00;;
34930;SDS011;21134;49.646;8.560;2023-03-01T07:34:53;2.87;;;1.17;;
34930;SDS011;21134;49.646;8.560;2023-03-01T07:37:20;1.83;;;1.73;;
34930;SDS011;21134;49.646;8.560;2023-03-01T07:39:46;3.67;;;1.90;;
34930;SDS011;21134;49.646;8.560;2023-03-01T07:42:13;3.03;;;1.80;;
34930;SDS011;21134;49.646;8.560;2023-03-01T07:44:39;2.83;;;1.80;;
34930;SDS011;21134;49.646;8.560;2023-03-01T07:47:06;1.67;;;1.57;;
34930;SDS011;21134;49.646;8.560;2023-03-01T07:49:34;3.37;;;2.30;;
34930;SDS011;21134;49.646;8.560;2023-03-01T07:52:00;2.70;;;1.77;;
34930;SDS011;21134;49.646;8.560;2023-03-01T07:54:27;3.73;;;1.83;;
34930;SDS011;21134;49.646;8.560;2023-03-01T07:56:53;4.60;;;1.80;;
34930;SDS011;21134;49.646;8.560;2023-03-01T07:59:20;2.57;;;1.37;;
34930;SDS011;21134;49.646;8.560;2023-03-01T08:01:48;2.97;;;1.60;;
34930;SDS011;21134;49.646;8.560;2023-03-01T08:04:15;1.77;;;1.37;;
34930;SDS011;21134;49.646;8.560;2023-03-01T08:06:42;4.30;;;2.00;;
34930;SDS011;21134;49.646;8.560;2023-03-01T08:09:09;6.77;;;2.97;;
34930;SDS011;21134;49.646;8.560;2023-03-01T08:11:35;1.80;;;1.70;;
34930;SDS011;21134;49.646;8.560;2023-03-01T08:14:02;2.50;;;1.67;;
34930;SDS011;21134;49.646;8.560;2023-03-01T08:16:29;3.50;;;1.90;;
34930;SDS011;21134;49.646;8.560;2023-03-01T08:18:55;4.53;;;1.07;;
34930;SDS011;21134;49.646;8.560;2023-03-01T08:21:25;10.40;;;2.90;;
34930;SDS011;21134;49.646;8.560;2023-03-01T08:23:53;13.63;;;2.83;;
34930;SDS011;21134;49.646;8.560;2023-03-01T08:26:20;3.50;;;1.37;;
34930;SDS011;21134;49.646;8.560;2023-03-01T08:28:47;12.33;;;2.87;;
34930;SDS011;21134;49.646;8.560;2023-03-01T08:31:16;5.57;;;2.87;;
34930;SDS011;21134;49.646;8.560;2023-03-01T08:33:44;4.97;;;2.53;;
34930;SDS011;21134;49.646;8.560;2023-03-01T08:36:15;2.40;;;1.63;;
34930;SDS011;21134;49.646;8.560;2023-03-01T08:38:42;2.40;;;1.53;;
34930;SDS011;21134;49.646;8.560;2023-03-01T08:41:10;9.23;;;3.33;;
34930;SDS011;21134;49.646;8.560;2023-03-01T08:43:37;2.00;;;1.90;;
34930;SDS011;21134;49.646;8.560;2023-03-01T08:46:03;9.07;;;2.63;;
34930;SDS011;21134;49.646;8.560;2023-03-01T08:48:30;7.40;;;2.13;;
34930;SDS011;21134;49.646;8.560;2023-03-01T08:50:56;3.90;;;2.73;;
34930;SDS011;21134;49.646;8.560;2023-03-01T08:53:23;6.50;;;3.07;;
34930;SDS011;21134;49.646;8.560;2023-03-01T08:55:49;7.80;;;2.10;;
34930;SDS011;21134;49.646;8.560;2023-03-01T08:58:17;5.07;;;2.63;;
34930;SDS011;21134;49.646;8.560;2023-03-01T09:00:44;10.43;;;3.70;;
34930;SDS011;21134;49.646;8.560;2023-03-01T09:03:10;4.10;;;2.10;;
34930;SDS011;21134;49.646;8.560;2023-03-01T09:05:36;6.90;;;3.23;;
34930;SDS011;21134;49.646;8.560;2023-03-01T09:08:03;2.57;;;1.93;;
34930;SDS011;21134;49.646;8.560;2023-03-01T09:10:30;9.13;;;3.10;;
34930;SDS011;21134;49.646;8.560;2023-03-01T09:12:56;4.90;;;1.20;;
34930;SDS011;21134;49.646;8.560;2023-03-01T09:15:24;2.93;;;1.87;;
34930;SDS011;21134;49.646;8.560;2023-03-01T09:17:50;4.67;;;3.13;;
34930;SDS011;21134;49.646;8.560;2023-03-01T09:20:17;8.67;;;3.07;;
34930;SDS011;21134;49.646;8.560;2023-03-01T09:22:43;7.10;;;2.37;;
34930;SDS011;21134;49.646;8.560;2023-03-01T09:25:10;26.13;;;3.13;;
34930;SDS011;21134;49.646;8.560;2023-03-01T09:27:36;9.37;;;2.50;;
34930;SDS011;21134;49.646;8.560;2023-03-01T09:30:03;17.87;;;3.47;;
34930;SDS011;21134;49.646;8.560;2023-03-01T09:32:32;5.17;;;2.20;;
34930;SDS011;21134;49.646;8.560;2023-03-01T09:34:58;9.33;;;3.27;;
34930;SDS011;21134;49.646;8.560;2023-03-01T09:37:29;3.20;;;2.47;;
34930;SDS011;21134;49.646;8.560;2023-03-01T09:39:57;10.77;;;2.90;;
34930;SDS011;21134;49.646;8.560;2023-03-01T09:42:23;4.57;;;3.43;;
34930;SDS011;21134;49.646;8.560;2023-03-01T09:44:51;3.37;;;2.93;;
34930;SDS011;21134;49.646;8.560;2023-03-01T09:47:23;6.73;;;3.90;;
34930;SDS011;21134;49.646;8.560;2023-03-01T09:49:57;6.17;;;4.17;;
34930;SDS011;21134;49.646;8.560;2023-03-01T09:52:28;5.40;;;2.63;;
34930;SDS011;21134;49.646;8.560;2023-03-01T09:54:59;13.83;;;4.63;;
34930;SDS011;21134;49.646;8.560;2023-03-01T09:57:27;16.10;;;3.33;;
34930;SDS011;21134;49.646;8.560;2023-03-01T10:00:01;4.67;;;2.73;;
34930;SDS011;21134;49.646;8.560;2023-03-01T10:02:41;4.50;;;2.23;;
34930;SDS011;21134;49.646;8.560;2023-03-01T10:05:17;4.53;;;2.77;;
34930;SDS011;21134;49.646;8.560;2023-03-01T10:07:54;6.53;;;3.10;;
34930;SDS011;21134;49.646;8.560;2023-03-01T10:10:32;4.23;;;2.47;;
34930;SDS011;21134;49.646;8.560;2023-03-01T10:13:02;8.07;;;2.53;;
34930;SDS011;21134;49.646;8.560;2023-03-01T10:15:38;10.20;;;3.07;;
34930;SDS011;21134;49.646;8.560;2023-03-01T10:18:09;7.63;;;3.73;;
34930;SDS011;21134;49.646;8.560;2023-03-01T10:20:45;5.17;;;2.83;;
34930;SDS011;21134;49.646;8.560;2023-03-01T10:23:17;6.63;;;4.07;;
34930;SDS011;21134;49.646;8.560;2023-03-01T10:25:47;2.93;;;2.50;;
34930;SDS011;21134;49.646;8.560;2023-03-01T10:28:25;4.43;;;2.83;;
34930;SDS011;21134;49.646;8.560;2023-03-01T10:30:57;7.50;;;3.23;;
34930;SDS011;21134;49.646;8.560;2023-03-01T10:33:25;10.53;;;4.20;;
34930;SDS011;21134;49.646;8.560;2023-03-01T10:35:56;4.93;;;3.10;;
34930;SDS011;21134;49.646;8.560;2023-03-01T10:38:23;6.20;;;2.37;;
34930;SDS011;21134;49.646;8.560;2023-03-01T10:40:51;13.93;;;4.03;;
34930;SDS011;21134;49.646;8.560;2023-03-01T10:43:19;12.63;;;4.47;;
34930;SDS011;21134;49.646;8.560;2023-03-01T10:45:47;5.33;;;3.73;;
34930;SDS011;21134;49.646;8.560;2023-03-01T10:48:14;8.80;;;3.53;;
34930;SDS011;21134;49.646;8.560;2023-03-01T10:50:43;11.43;;;4.37;;
34930;SDS011;21134;49.646;8.560;2023-03-01T10:53:23;4.97;;;2.83;;
34930;SDS011;21134;49.646;8.560;2023-03-01T10:55:59;7.37;;;3.50;;
34930;SDS011;21134;49.646;8.560;2023-03-01T10:58:27;7.83;;;3.53;;
34930;SDS011;21134;49.646;8.560;2023-03-01T11:00:55;5.53;;;3.07;;
34930;SDS011;21134;49.646;8.560;2023-03-01T11:03:24;7.50;;;3.23;;
34930;SDS011;21134;49.646;8.560;2023-03-01T11:05:54;9.63;;;4.57;;
34930;SDS011;21134;49.646;8.560;2023-03-01T11:08:35;4.23;;;2.77;;
34930;SDS011;21134;49.646;8.560;2023-03-01T11:11:04;13.67;;;3.27;;
34930;SDS011;21134;49.646;8.560;2023-03-01T11:13:32;4.73;;;3.17;;
34930;SDS011;21134;49.646;8.560;2023-03-01T11:16:00;3.40;;;2.60;;
34930;SDS011;21134;49.646;8.560;2023-03-01T11:18:27;10.47;;;4.00;;
34930;SDS011;21134;49.646;8.560;2023-03-01T11:20:56;6.47;;;2.57;;
34930;SDS011;21134;49.646;8.560;2023-03-01T11:23:25;11.93;;;3.53;;
34930;SDS011;21134;49.646;8.560;2023-03-01T11:26:02;4.73;;;3.13;;
34930;SDS011;21134;49.646;8.560;2023-03-01T11:28:33;3.60;;;2.93;;
34930;SDS011;21134;49.646;8.560;2023-03-01T11:31:04;17.57;;;3.27;;
34930;SDS011;21134;49.646;8.560;2023-03-01T11:33:34;4.57;;;3.10;;
34930;SDS011;21134;49.646;8.560;2023-03-01T11:36:06;8.00;;;4.30;;
34930;SDS011;21134;49.646;8.560;2023-03-01T11:38:39;8.97;;;4.00;;
34930;SDS011;21134;49.646;8.560;2023-03-01T11:41:08;6.20;;;3.37;;
34930;SDS011;21134;49.646;8.560;2023-03-01T11:43:41;11.43;;;2.80;;
34930;SDS011;21134;49.646;8.560;2023-03-01T11:46:27;9.13;;;4.13;;
34930;SDS011;21134;49.646;8.560;2023-03-01T11:49:19;11.37;;;4.00;;
34930;SDS011;21134;49.646;8.560;2023-03-01T11:52:07;4.57;;;2.60;;
34930;SDS011;21134;49.646;8.560;2023-03-01T11:54:46;4.37;;;3.23;;
34930;SDS011;21134;49.646;8.560;2023-03-01T11:57:26;13.93;;;3.93;;
34930;SDS011;21134;49.646;8.560;2023-03-01T12:08:52;3.93;;;2.03;;
34930;SDS011;21134;49.646;8.560;2023-03-01T12:11:31;10.50;;;3.20;;
34930;SDS011;21134;49.646;8.560;2023-03-01T12:14:13;7.20;;;2.93;;
34930;SDS011;21134;49.646;8.560;2023-03-01T12:16:56;7.47;;;2.87;;
34930;SDS011;21134;49.646;8.560;2023-03-01T12:19:41;11.80;;;3.17;;
34930;SDS011;21134;49.646;8.560;2023-03-01T12:22:29;8.83;;;3.40;;
34930;SDS011;21134;49.646;8.560;2023-03-01T12:25:01;6.67;;;3.57;;
34930;SDS011;21134;49.646;8.560;2023-03-01T12:28:02;9.03;;;4.03;;
34930;SDS011;21134;49.646;8.560;2023-03-01T12:30:46;13.63;;;3.50;;
34930;SDS011;21134;49.646;8.560;2023-03-01T12:33:28;12.87;;;3.20;;
34930;SDS011;21134;49.646;8.560;2023-03-01T12:36:10;6.27;;;3.03;;
34930;SDS011;21134;49.646;8.560;2023-03-01T12:38:59;9.47;;;3.90;;
34930;SDS011;21134;49.646;8.560;2023-03-01T12:41:43;6.40;;;3.50;;
34930;SDS011;21134;49.646;8.560;2023-03-01T12:47:07;13.63;;;4.80;;
34930;SDS011;21134;49.646;8.560;2023-03-01T12:49:44;6.03;;;3.13;;
34930;SDS011;21134;49.646;8.560;2023-03-01T12:52:14;7.00;;;3.03;;
34930;SDS011;21134;49.646;8.560;2023-03-01T12:54:44;6.33;;;3.30;;
34930;SDS011;21134;49.646;8.560;2023-03-01T12:57:14;10.70;;;3.03;;
34930;SDS011;21134;49.646;8.560;2023-03-01T12:59:46;8.30;;;2.80;;
34930;SDS011;21134;49.646;8.560;2023-03-01T13:02:28;5.63;;;3.33;;
34930;SDS011;21134;49.646;8.560;2023-03-01T13:05:06;6.53;;;3.67;;
34930;SDS011;21134;49.646;8.560;2023-03-01T13:07:48;6.20;;;2.97;;
34930;SDS011;21134;49.646;8.560;2023-03-01T13:10:23;15.70;;;4.83;;
34930;SDS011;21134;49.646;8.560;2023-03-01T13:13:08;6.03;;;3.27;;
34930;SDS011;21134;49.646;8.560;2023-03-01T13:15:39;5.50;;;2.87;;
34930;SDS011;21134;49.646;8.560;2023-03-01T13:20:57;12.07;;;4.47;;
34930;SDS011;21134;49.646;8.560;2023-03-01T13:23:26;7.27;;;4.00;;
34930;SDS011;21134;49.646;8.560;2023-03-01T13:26:06;8.57;;;3.13;;
34930;SDS011;21134;49.646;8.560;2023-03-01T13:28:47;23.93;;;4.70;;
34930;SDS011;21134;49.646;8.560;2023-03-01T13:37:10;5.97;;;3.63;;
34930;SDS011;21134;49.646;8.560;2023-03-01T13:39:44;6.03;;;2.93;;
34930;SDS011;21134;49.646;8.560;2023-03-01T13:42:33;6.80;;;4.07;;
34930;SDS011;21134;49.646;8.560;2023-03-01T13:45:12;4.53;;;3.37;;
34930;SDS011;21134;49.646;8.560;2023-03-01T13:47:43;7.60;;;3.50;;
34930;SDS011;21134;49.646;8.560;2023-03-01T13:50:18;8.63;;;3.77;;
34930;SDS011;21134;49.646;8.560;2023-03-01T13:52:48;10.33;;;4.17;;
34930;SDS011;21134;49.646;8.560;2023-03-01T13:55:19;9.83;;;4.10;;
34930;SDS011;21134;49.646;8.560;2023-03-01T13:57:49;10.67;;;4.00;;
34930;SDS011;21134;49.646;8.560;2023-03-01T14:00:25;12.20;;;2.80;;
34930;SDS011;21134;49.646;8.560;2023-03-01T14:03:01;8.43;;;3.27;;
34930;SDS011;21134;49.646;8.560;2023-03-01T14:05:32;12.30;;;3.53;;
34930;SDS011;21134;49.646;8.560;2023-03-01T14:08:00;5.07;;;3.70;;
34930;SDS011;21134;49.646;8.560;2023-03-01T14:10:32;5.10;;;3.07;;
34930;SDS011;21134;49.646;8.560;2023-03-01T14:13:13;7.87;;;3.40;;
34930;SDS011;21134;49.646;8.560;2023-03-01T14:15:56;5.50;;;2.57;;
34930;SDS011;21134;49.646;8.560;2023-03-01T14:18:39;12.73;;;2.80;;
34930;SDS011;21134;49.646;8.560;2023-03-01T14:21:13;5.13;;;2.50;;
34930;SDS011;21134;49.646;8.560;2023-03-01T14:23:41;3.43;;;2.30;;
34930;SDS011;21134;49.646;8.560;2023-03-01T14:26:08;6.80;;;2.67;;
34930;SDS011;21134;49.646;8.560;2023-03-01T14:28:37;6.63;;;2.03;;
34930;SDS011;21134;49.646;8.560;2023-03-01T14:33:57;3.77;;;1.70;;
34930;SDS011;21134;49.646;8.560;2023-03-01T14:36:28;4.97;;;2.80;;
34930;SDS011;21134;49.646;8.560;2023-03-01T14:38:55;8.93;;;2.93;;
34930;SDS011;21134;49.646;8.560;2023-03-01T14:41:23;4.90;;;3.60;;
34930;SDS011;21134;49.646;8.560;2023-03-01T14:43:54;5.10;;;2.67;;
34930;SDS011;21134;49.646;8.560;2023-03-01T14:46:24;8.13;;;2.63;;
34930;SDS011;21134;49.646;8.560;2023-03-01T14:48:56;2.73;;;2.13;;
34930;SDS011;21134;49.646;8.560;2023-03-01T14:51:28;5.63;;;2.30;;
34930;SDS011;21134;49.646;8.560;2023-03-01T14:53:55;7.77;;;2.93;;
34930;SDS011;21134;49.646;8.560;2023-03-01T14:56:22;5.33;;;3.43;;
34930;SDS011;21134;49.646;8.560;2023-03-01T14:58:50;7.40;;;2.20;;
34930;SDS011;21134;49.646;8.560;2023-03-01T15:01:17;4.40;;;2.00;;
34930;SDS011;21134;49.646;8.560;2023-03-01T15:03:45;4.47;;;2.93;;
34930;SDS011;21134;49.646;8.560;2023-03-01T15:06:14;7.07;;;3.20;;
34930;SDS011;21134;49.646;8.560;2023-03-01T15:08:46;4.50;;;2.30;;
34930;SDS011;21134;49.646;8.560;2023-03-01T15:11:17;4.67;;;2.33;;
34930;SDS011;21134;49.646;8.560;2023-03-01T15:13:47;4.57;;;2.63;;
34930;SDS011;21134;49.646;8.560;2023-03-01T15:16:15;4.00;;;1.67;;
34930;SDS011;21134;49.646;8.560;2023-03-01T15:18:45;7.53;;;3.03;;
34930;SDS011;21134;49.646;8.560;2023-03-01T15:21:15;3.10;;;1.83;;
34930;SDS011;21134;49.646;8.560;2023-03-01T15:23:48;4.20;;;2.40;;
34930;SDS011;21134;49.646;8.560;2023-03-01T15:26:27;7.67;;;3.03;;